Time;durP1;ratioP1;P1;durP2;ratioP2;P2;SDS_P1;SDS_P2;PMS_P1;PMS_P2;Temp;Humidity;BMP_temperature;BMP_pressure;BME280_temperature;BME280_humidity;BME280_pressure;Samples;Min_cycle;Max_cycle;Signal;HPM_P1;HPM_P2
2023/06/01 00:01:52;;;;;;;7.50;3.60;;;;;;;21.15;43.66;100550.15;108641;1280;21984;-62
2023/06/01 00:04:18;;;;;;;7.60;3.30;;;;;;;21.33;43.24;100548.84;108577;1280;21981;-63
2023/06/01 00:06:44;;;;;;;7.00;3.50;;;;;;;21.41;42.99;100548.90;108565;1280;22004;-62
2023/06/01 00:09:09;;;;;;;4.90;3.10;;;;;;;21.42;43.02;100549.39;108544;1274;21966;-69
2023/06/01 00:11:36;;;;;;;5.30;3.20;;;;;;;21.42;42.88;100551.39;108585;1280;21994;-67
2023/06/01 00:14:01;;;;;;;7.00;3.60;;;;;;;21.39;43.00;100550.45;108601;1274;22550;-66
2023/06/01 00:16:28;;;;;;;5.70;3.30;;;;;;;21.36;43.12;100550.41;106947;1280;1002579;-68
2023/06/01 00:18:56;;;;;;;9.80;3.70;;;;;;;21.34;43.04;100548.76;108424;1274;21992;-62
2023/06/01 00:21:22;;;;;;;6.70;3.30;;;;;;;21.32;43.03;100546.23;108557;1274;22004;-62
2023/06/01 00:23:47;;;;;;;6.10;3.50;;;;;;;21.30;42.98;100544.54;108601;1280;21987;-63
2023/06/01 00:26:14;;;;;;;8.20;3.70;;;;;;;21.28;42.93;100547.33;108550;1274;21968;-62
2023/06/01 00:28:40;;;;;;;8.20;3.30;;;;;;;21.23;43.12;100545.20;107850;1280;1002528;-64
2023/06/01 00:31:05;;;;;;;7.00;3.70;;;;;;;21.18;43.12;100545.14;108596;1280;21980;-66
2023/06/01 00:33:34;;;;;;;7.80;3.70;;;;;;;21.14;43.20;100541.30;108629;1280;21978;-62
2023/06/01 00:36:00;;;;;;;7.20;3.30;;;;;;;21.09;43.13;100546.36;108422;1271;187803;-63
2023/06/01 00:38:25;;;;;;;7.80;3.30;;;;;;;21.04;43.23;100542.69;108460;1271;22017;-70
2023/06/01 00:40:51;;;;;;;5.60;3.50;;;;;;;21.00;43.20;100537.39;108505;1280;21996;-62
2023/06/01 00:43:17;;;;;;;5.20;3.30;;;;;;;20.97;43.27;100540.05;108509;1275;21985;-64
2023/06/01 00:45:43;;;;;;;6.50;3.30;;;;;;;20.92;43.25;100545.64;108513;1280;21984;-69
2023/06/01 00:48:09;;;;;;;7.40;3.80;;;;;;;20.87;43.44;100545.73;108538;1274;22150;-64
2023/06/01 00:50:35;;;;;;;7.00;3.20;;;;;;;20.82;43.46;100547.44;108516;1271;21984;-69
2023/06/01 00:53:01;;;;;;;8.40;3.60;;;;;;;20.77;43.46;100548.70;108524;1280;21982;-69
2023/06/01 00:55:26;;;;;;;10.00;3.70;;;;;;;20.73;43.57;100549.46;108483;1280;21980;-69
2023/06/01 00:57:52;;;;;;;7.90;3.60;;;;;;;20.69;43.59;100548.45;108480;1279;21983;-62
2023/06/01 01:00:18;;;;;;;7.30;3.40;;;;;;;20.64;43.68;100552.27;108613;1268;21985;-64
2023/06/01 01:02:44;;;;;;;6.30;3.20;;;;;;;20.60;43.76;100552.79;108551;1279;21990;-70
2023/06/01 01:05:10;;;;;;;5.50;2.90;;;;;;;20.57;43.77;100552.24;108599;1279;21983;-64
2023/06/01 01:08:02;;;;;;;6.80;3.70;;;;;;;20.56;43.94;100553.55;108480;1279;21982;-70
2023/06/01 01:10:33;;;;;;;8.70;3.30;;;;;;;20.55;44.03;100551.99;108671;1268;21982;-70
2023/06/01 01:13:36;;;;;;;6.50;3.60;;;;;;;20.58;44.00;100551.11;108705;1274;21984;-63
2023/06/01 01:16:20;;;;;;;4.80;3.20;;;;;;;20.61;43.86;100555.09;108652;1268;21982;-62
2023/06/01 01:18:54;;;;;;;5.90;3.50;;;;;;;20.58;43.66;100556.65;108413;1268;21979;-62
2023/06/01 01:21:27;;;;;;;9.50;3.50;;;;;;;20.55;43.74;100559.31;108457;1277;23742;-69
2023/06/01 01:24:24;;;;;;;6.90;3.10;;;;;;;20.53;43.77;100564.06;108644;1279;22447;-69
2023/06/01 01:27:05;;;;;;;8.50;3.30;;;;;;;20.50;43.79;100563.83;108567;1274;22005;-70
2023/06/01 01:29:31;;;;;;;7.40;3.60;;;;;;;20.46;43.84;100563.12;108668;1278;21986;-71
2023/06/01 01:31:57;;;;;;;5.90;3.30;;;;;;;20.45;43.86;100567.13;108554;1279;21979;-64
2023/06/01 01:34:24;;;;;;;6.60;3.30;;;;;;;20.44;43.82;100568.77;108583;1279;21981;-63
2023/06/01 01:36:50;;;;;;;7.10;3.50;;;;;;;20.42;43.98;100572.45;108678;1271;21984;-71
2023/06/01 01:39:16;;;;;;;9.30;3.40;;;;;;;20.39;44.07;100567.41;108713;1277;22448;-64
2023/06/01 01:41:41;;;;;;;6.70;3.50;;;;;;;20.38;44.21;100567.98;108622;1279;22021;-70
2023/06/01 01:44:07;;;;;;;7.60;3.90;;;;;;;20.38;44.07;100568.69;108567;1273;22016;-63
2023/06/01 01:46:35;;;;;;;8.00;3.50;;;;;;;20.35;44.12;100563.67;107826;1278;1002301;-70
2023/06/01 01:49:08;;;;;;;8.10;3.70;;;;;;;20.33;44.17;100566.64;108607;1279;21989;-70
2023/06/01 01:51:37;;;;;;;6.90;3.90;;;;;;;20.31;44.16;100567.61;108588;1273;22086;-69
2023/06/01 01:54:09;;;;;;;9.10;3.70;;;;;;;20.30;44.19;100571.26;108646;1275;22037;-64
2023/06/01 01:56:35;;;;;;;12.80;4.60;;;;;;;20.29;44.15;100569.52;108621;1279;21968;-63
2023/06/01 01:59:01;;;;;;;7.60;4.90;;;;;;;20.27;44.12;100567.68;108584;1275;22030;-63
2023/06/01 02:01:27;;;;;;;12.70;6.90;;;;;;;20.22;44.18;100567.52;108641;1280;22015;-68
2023/06/01 02:04:00;;;;;;;9.60;6.40;;;;;;;20.18;44.13;100568.98;108481;1280;21983;-63
2023/06/01 02:06:26;;;;;;;9.50;5.60;;;;;;;20.14;44.21;100568.27;108423;1276;21988;-68
2023/06/01 02:08:51;;;;;;;10.10;5.20;;;;;;;20.11;44.17;100570.73;108569;1280;21995;-70
2023/06/01 02:11:17;;;;;;;9.70;4.30;;;;;;;20.07;44.41;100573.98;108587;1280;21983;-62
2023/06/01 02:13:43;;;;;;;10.70;4.20;;;;;;;20.04;44.20;100571.46;108583;1280;21980;-68
2023/06/01 02:16:08;;;;;;;7.30;3.90;;;;;;;20.01;44.32;100570.52;108640;1280;21989;-63
2023/06/01 02:18:38;;;;;;;6.90;3.80;;;;;;;19.94;44.49;100573.16;108620;1274;21986;-63
2023/06/01 02:21:05;;;;;;;8.10;3.50;;;;;;;19.89;44.54;100569.11;108513;1277;21979;-69
2023/06/01 02:23:31;;;;;;;7.40;3.10;;;;;;;19.85;44.54;100569.30;108419;1271;22442;-63
2023/06/01 02:25:56;;;;;;;8.00;3.40;;;;;;;19.80;44.59;100574.54;108505;1280;22007;-63
2023/06/01 02:28:22;;;;;;;6.80;3.00;;;;;;;19.75;44.71;100572.25;108491;1268;22016;-68
2023/06/01 02:30:47;;;;;;;6.70;3.30;;;;;;;19.71;44.78;100577.95;108580;1274;21989;-68
2023/06/01 02:33:13;;;;;;;5.10;3.20;;;;;;;19.66;44.81;100575.88;108464;1271;22073;-69
2023/06/01 02:35:39;;;;;;;5.80;3.30;;;;;;;19.62;45.03;100578.38;108439;1280;21977;-68
2023/06/01 02:38:05;;;;;;;6.70;3.40;;;;;;;19.61;45.14;100581.11;108469;1278;21985;-69
2023/06/01 02:40:30;;;;;;;5.80;3.40;;;;;;;19.60;45.33;100580.26;108560;1280;21998;-69
2023/06/01 02:42:56;;;;;;;12.90;4.80;;;;;;;19.58;45.37;100582.69;108621;1278;22136;-64
2023/06/01 02:45:22;;;;;;;5.30;3.00;;;;;;;19.56;45.47;100586.33;108609;1277;21993;-69
2023/06/01 02:47:47;;;;;;;5.70;3.10;;;;;;;19.55;45.57;100589.91;108546;1277;22018;-63
2023/06/01 02:50:13;;;;;;;8.70;3.80;;;;;;;19.56;45.73;100589.17;108539;1274;21995;-63
2023/06/01 02:52:39;;;;;;;6.10;3.30;;;;;;;19.57;45.85;100587.70;108600;1278;21989;-70
2023/06/01 02:55:06;;;;;;;6.20;3.50;;;;;;;19.59;45.82;100586.19;108483;1277;21977;-70
2023/06/01 02:57:32;;;;;;;7.20;3.60;;;;;;;19.60;45.97;100582.92;108476;1279;21988;-70
2023/06/01 02:59:58;;;;;;;8.70;3.60;;;;;;;19.63;46.05;100578.34;108352;1268;22157;-62
2023/06/01 03:02:26;;;;;;;7.90;3.60;;;;;;;19.65;46.07;100578.06;108568;1271;21980;-70
2023/06/01 03:04:52;;;;;;;6.70;3.20;;;;;;;19.69;46.21;100581.25;108605;1279;21985;-69
2023/06/01 03:07:18;;;;;;;10.00;3.00;;;;;;;19.74;46.29;100587.06;108472;1273;22144;-63
2023/06/01 03:09:44;;;;;;;8.30;3.70;;;;;;;19.82;46.36;100591.53;108370;1279;21977;-69
2023/06/01 03:12:10;;;;;;;10.50;4.10;;;;;;;19.87;46.34;100597.89;108602;1268;21980;-70
2023/06/01 03:14:36;;;;;;;8.20;3.30;;;;;;;19.91;46.51;100599.11;108683;1279;22153;-70
2023/06/01 03:17:01;;;;;;;10.00;3.80;;;;;;;19.96;46.64;100595.89;108645;1280;23647;-69
2023/06/01 03:19:27;;;;;;;6.70;3.40;;;;;;;20.00;46.74;100594.98;108552;1271;22017;-64
2023/06/01 03:21:53;;;;;;;8.80;3.20;;;;;;;20.06;46.72;100602.20;108414;1280;21989;-63
2023/06/01 03:24:18;;;;;;;12.50;3.60;;;;;;;20.12;46.76;100604.05;108439;1277;21977;-63
2023/06/01 03:26:45;;;;;;;10.00;3.40;;;;;;;20.18;47.02;100601.77;108419;1271;22014;-69
2023/06/01 03:29:11;;;;;;;8.70;3.70;;;;;;;20.24;46.94;100601.46;108419;1278;22020;-63
2023/06/01 03:31:37;;;;;;;6.80;3.40;;;;;;;20.30;47.13;100602.77;108445;1280;22037;-70
2023/06/01 03:34:02;;;;;;;11.00;3.90;;;;;;;20.39;47.09;100606.81;108437;1280;21978;-72
2023/06/01 03:36:28;;;;;;;5.30;3.30;;;;;;;20.34;47.41;100606.33;108443;1274;21989;-69
2023/06/01 03:38:54;;;;;;;10.30;3.30;;;;;;;20.47;47.33;100603.75;108394;1277;21983;-62
2023/06/01 03:41:19;;;;;;;7.70;3.10;;;;;;;20.57;47.13;100602.71;108436;1274;21984;-63
2023/06/01 03:43:45;;;;;;;6.70;3.70;;;;;;;20.62;47.16;100602.98;108437;1280;21997;-70
2023/06/01 03:46:11;;;;;;;6.70;3.50;;;;;;;20.63;47.03;100605.23;108479;1270;21983;-70
2023/06/01 03:48:37;;;;;;;9.30;3.70;;;;;;;20.69;47.13;100605.52;108471;1280;21983;-64
2023/06/01 03:51:03;;;;;;;6.60;3.30;;;;;;;20.72;47.08;100608.19;108471;1280;21983;-63
2023/06/01 03:53:31;;;;;;;6.50;3.70;;;;;;;20.73;47.09;100604.55;108519;1277;21985;-70
2023/06/01 03:55:56;;;;;;;4.70;3.10;;;;;;;20.78;47.07;100605.91;108487;1280;21983;-69
2023/06/01 03:58:23;;;;;;;11.30;3.90;;;;;;;20.83;47.02;100604.06;108401;1280;21988;-62
2023/06/01 04:00:49;;;;;;;13.80;4.20;;;;;;;20.88;47.18;100607.24;108491;1274;22006;-63
2023/06/01 04:03:21;;;;;;;11.00;3.60;;;;;;;20.94;47.56;100603.16;108483;1280;21985;-61
2023/06/01 04:05:49;;;;;;;9.60;4.20;;;;;;;21.07;47.39;100604.61;108431;1280;21988;-70
2023/06/01 04:08:16;;;;;;;8.60;3.70;;;;;;;21.20;47.36;100604.13;108489;1280;21988;-69
2023/06/01 04:10:42;;;;;;;8.00;3.10;;;;;;;21.30;47.29;100606.10;108503;1280;22015;-62
2023/06/01 04:13:07;;;;;;;6.20;3.20;;;;;;;21.41;47.31;100607.83;108462;1280;21980;-68
2023/06/01 04:15:33;;;;;;;7.20;2.90;;;;;;;21.50;47.10;100608.20;108454;1274;22146;-62
2023/06/01 04:17:59;;;;;;;7.20;3.80;;;;;;;21.60;47.19;100608.94;108470;1278;21990;-69
2023/06/01 04:20:25;;;;;;;5.90;3.00;;;;;;;21.71;47.14;100610.31;108456;1278;21989;-61
2023/06/01 04:22:51;;;;;;;7.50;3.30;;;;;;;21.83;47.13;100605.92;108445;1275;21992;-66
2023/06/01 04:25:18;;;;;;;7.30;3.60;;;;;;;21.96;47.40;100608.06;108431;1268;21981;-61
2023/06/01 04:27:45;;;;;;;10.50;3.90;;;;;;;21.99;47.62;100605.71;108456;1273;22005;-62
2023/06/01 04:30:12;;;;;;;8.90;3.50;;;;;;;22.05;47.93;100606.30;108543;1280;21979;-63
2023/06/01 04:32:38;;;;;;;7.10;2.90;;;;;;;22.20;47.79;100612.98;108579;1280;22022;-61
2023/06/01 04:35:05;;;;;;;7.20;3.50;;;;;;;22.33;47.64;100614.55;108492;1279;22004;-68
2023/06/01 04:37:35;;;;;;;6.50;3.00;;;;;;;22.43;47.38;100614.52;108517;1275;21990;-63
2023/06/01 04:40:06;;;;;;;7.00;3.60;;;;;;;22.55;47.53;100615.27;108443;1271;21986;-67
2023/06/01 04:42:32;;;;;;;6.60;3.50;;;;;;;22.71;47.42;100612.52;108547;1278;21984;-61
2023/06/01 04:44:58;;;;;;;7.00;3.80;;;;;;;22.86;47.00;100610.40;108427;1278;21983;-67
2023/06/01 04:47:24;;;;;;;12.80;3.30;;;;;;;23.02;47.07;100611.91;108505;1280;22019;-66
2023/06/01 04:49:52;;;;;;;5.10;2.90;;;;;;;23.19;46.64;100608.95;108443;1271;21988;-66
2023/06/01 04:52:19;;;;;;;4.80;3.10;;;;;;;23.33;46.47;100608.28;108451;1280;21991;-67
2023/06/01 04:54:45;;;;;;;6.00;3.10;;;;;;;23.46;46.14;100608.41;108480;1280;21989;-67
2023/06/01 04:57:13;;;;;;;4.50;2.90;;;;;;;23.65;45.91;100606.69;108516;1279;21986;-65
2023/06/01 04:59:42;;;;;;;4.80;2.70;;;;;;;23.82;46.00;100606.63;108413;1279;21980;-66
2023/06/01 05:02:08;;;;;;;5.40;3.20;;;;;;;24.00;45.73;100604.59;108458;1268;21983;-67
2023/06/01 05:04:33;;;;;;;5.20;2.70;;;;;;;24.19;45.71;100603.43;108441;1275;21988;-65
2023/06/01 05:06:59;;;;;;;6.60;2.80;;;;;;;24.38;45.57;100601.63;108658;1271;21991;-63
2023/06/01 05:09:25;;;;;;;5.00;2.70;;;;;;;24.57;45.27;100597.83;108449;1280;21980;-67
2023/06/01 05:11:50;;;;;;;7.90;3.40;;;;;;;24.76;44.84;100599.44;108544;1278;21982;-66
2023/06/01 05:14:16;;;;;;;5.40;2.70;;;;;;;24.96;44.73;100605.95;108514;1274;21987;-66
2023/06/01 05:16:42;;;;;;;5.50;2.70;;;;;;;25.20;44.48;100607.23;109278;1274;21947;-65
2023/06/01 05:19:07;;;;;;;10.80;3.10;;;;;;;25.40;44.41;100606.00;108380;1280;21997;-64
2023/06/01 05:21:33;;;;;;;6.10;2.60;;;;;;;25.60;44.47;100610.31;108512;1280;21976;-64
2023/06/01 05:23:59;;;;;;;7.50;3.20;;;;;;;25.87;44.36;100613.23;108427;1278;21979;-66
2023/06/01 05:26:25;;;;;;;6.40;2.80;;;;;;;26.09;43.86;100616.11;108457;1280;21985;-67
2023/06/01 05:28:51;;;;;;;5.10;2.90;;;;;;;26.31;43.64;100611.65;108449;1278;22029;-66
2023/06/01 05:31:16;;;;;;;5.70;2.70;;;;;;;26.53;43.41;100610.73;108399;1280;23615;-67
2023/06/01 05:33:42;;;;;;;6.00;2.50;;;;;;;26.71;43.14;100605.77;108442;1278;21983;-68
2023/06/01 05:36:09;;;;;;;5.30;2.60;;;;;;;26.91;42.96;100604.29;108577;1280;21979;-64
2023/06/01 05:38:36;;;;;;;5.30;2.30;;;;;;;27.07;42.70;100608.09;108524;1274;21970;-65
2023/06/01 05:41:02;;;;;;;7.30;2.60;;;;;;;27.24;42.47;100610.51;108453;1280;21989;-65
2023/06/01 05:43:28;;;;;;;4.40;2.10;;;;;;;27.40;42.15;100609.83;108482;1280;21985;-66
2023/06/01 05:45:54;;;;;;;8.10;2.50;;;;;;;27.61;42.03;100609.45;108572;1272;21982;-65
2023/06/01 05:48:19;;;;;;;4.90;2.50;;;;;;;27.78;41.61;100609.34;108498;1280;21980;-64
2023/06/01 05:50:45;;;;;;;5.30;2.30;;;;;;;27.96;41.79;100605.69;108521;1280;22000;-67
2023/06/01 05:53:11;;;;;;;4.50;2.70;;;;;;;28.16;41.52;100605.55;108457;1280;21983;-66
2023/06/01 05:55:36;;;;;;;4.60;2.60;;;;;;;28.30;41.23;100600.57;108435;1271;21988;-67
2023/06/01 05:58:02;;;;;;;4.00;2.50;;;;;;;28.45;41.09;100602.60;108493;1280;22030;-66
2023/06/01 06:00:28;;;;;;;4.30;2.20;;;;;;;28.66;41.30;100599.18;108406;1280;24302;-65
2023/06/01 06:02:54;;;;;;;8.10;2.90;;;;;;;28.91;41.04;100600.83;108453;1278;21978;-65
2023/06/01 06:05:20;;;;;;;4.90;2.40;;;;;;;29.19;40.80;100604.39;108435;1280;22022;-66
2023/06/01 06:07:46;;;;;;;5.20;2.40;;;;;;;29.45;40.47;100603.40;108557;1280;22036;-64
2023/06/01 06:10:14;;;;;;;4.60;2.40;;;;;;;29.63;40.07;100599.54;108458;1280;21983;-67
2023/06/01 06:12:41;;;;;;;4.10;2.20;;;;;;;29.81;39.92;100595.86;108507;1275;21996;-65
2023/06/01 06:15:08;;;;;;;3.80;2.20;;;;;;;30.02;39.72;100598.02;108458;1274;21982;-67
2023/06/01 06:17:35;;;;;;;4.70;2.70;;;;;;;30.27;39.66;100596.29;108450;1278;22010;-66
2023/06/01 06:20:00;;;;;;;4.80;2.10;;;;;;;30.51;39.44;100592.61;108452;1280;21982;-64
2023/06/01 06:22:26;;;;;;;6.30;2.70;;;;;;;30.76;39.27;100603.02;108435;1280;21988;-65
2023/06/01 06:24:52;;;;;;;5.20;2.50;;;;;;;31.05;39.20;100599.18;108451;1280;21984;-67
2023/06/01 06:27:17;;;;;;;4.10;2.10;;;;;;;31.31;38.88;100599.77;108528;1280;21958;-68
2023/06/01 06:29:43;;;;;;;11.60;2.60;;;;;;;31.51;37.99;100601.29;108436;1278;21977;-67
2023/06/01 06:32:08;;;;;;;3.90;2.30;;;;;;;31.56;37.53;100596.80;108481;1280;21999;-66
2023/06/01 06:34:37;;;;;;;2.80;2.00;;;;;;;31.68;37.50;100594.80;108449;1280;21983;-68
2023/06/01 06:37:06;;;;;;;7.10;2.40;;;;;;;31.87;37.54;100596.67;108428;1270;24326;-65
2023/06/01 06:39:33;;;;;;;3.80;2.40;;;;;;;32.13;37.63;100598.16;108483;1280;21956;-67
2023/06/01 06:42:01;;;;;;;2.80;2.00;;;;;;;32.38;37.18;100593.48;108598;1279;21982;-67
2023/06/01 06:44:26;;;;;;;3.60;2.30;;;;;;;32.61;36.91;100594.91;108467;1275;21985;-67
2023/06/01 06:46:52;;;;;;;4.90;2.10;;;;;;;32.85;36.62;100594.11;108541;1277;22739;-66
2023/06/01 06:49:18;;;;;;;4.40;2.40;;;;;;;33.08;36.44;100588.92;108446;1280;23720;-67
2023/06/01 06:51:44;;;;;;;5.10;2.20;;;;;;;33.33;36.17;100589.56;108393;1278;21993;-66
2023/06/01 06:54:10;;;;;;;3.10;1.80;;;;;;;33.56;35.79;100588.28;108426;1280;22020;-67
2023/06/01 06:56:36;;;;;;;4.50;2.20;;;;;;;33.74;35.55;100589.44;108494;1280;21994;-67
2023/06/01 06:59:02;;;;;;;6.50;2.80;;;;;;;33.91;35.21;100590.66;108509;1280;22448;-68
2023/06/01 07:01:28;;;;;;;4.60;2.70;;;;;;;34.07;34.74;100593.94;108544;1280;21998;-66
2023/06/01 07:03:55;;;;;;;8.20;3.20;;;;;;;34.22;34.51;100598.88;108405;1280;23606;-68
2023/06/01 07:06:22;;;;;;;4.80;2.80;;;;;;;34.39;34.36;100597.94;108516;1278;22165;-68
2023/06/01 07:08:49;;;;;;;5.20;2.80;;;;;;;34.51;34.15;100596.56;108474;1277;21983;-67
2023/06/01 07:11:15;;;;;;;5.00;3.70;;;;;;;34.65;34.01;100595.05;108510;1280;21949;-66
2023/06/01 07:13:41;;;;;;;5.90;3.20;;;;;;;34.78;33.83;100595.21;108460;1274;21992;-67
2023/06/01 07:16:07;;;;;;;5.00;3.70;;;;;;;34.92;33.36;100598.02;108461;1277;22039;-68
2023/06/01 07:18:33;;;;;;;6.40;3.10;;;;;;;35.03;33.43;100597.71;108509;1273;22448;-68
2023/06/01 07:20:58;;;;;;;5.50;3.20;;;;;;;35.21;33.26;100596.78;108535;1273;21978;-67
2023/06/01 07:23:24;;;;;;;8.30;4.40;;;;;;;35.40;33.08;100595.41;108449;1280;21984;-67
2023/06/01 07:25:50;;;;;;;6.10;5.40;;;;;;;35.54;32.56;100593.59;108522;1280;22148;-65
2023/06/01 07:28:16;;;;;;;5.90;4.50;;;;;;;35.66;32.54;100598.06;108592;1280;21986;-64
2023/06/01 07:30:42;;;;;;;6.20;3.60;;;;;;;35.81;32.54;100597.94;108544;1280;21982;-65
2023/06/01 07:33:08;;;;;;;7.00;5.20;;;;;;;35.94;32.05;100599.17;108412;1280;21960;-67
2023/06/01 07:35:34;;;;;;;8.40;6.30;;;;;;;35.97;31.55;100597.00;108553;1280;21982;-67
2023/06/01 07:38:03;;;;;;;8.60;6.70;;;;;;;36.02;31.65;100595.72;108539;1280;21980;-68
2023/06/01 07:40:32;;;;;;;10.50;6.50;;;;;;;36.20;31.84;100596.80;108530;1274;23650;-65
2023/06/01 07:42:58;;;;;;;13.00;7.20;;;;;;;36.48;31.77;100596.38;108534;1274;21993;-66
2023/06/01 07:45:24;;;;;;;7.70;6.50;;;;;;;36.73;31.57;100592.67;108527;1278;21988;-65
2023/06/01 07:47:50;;;;;;;7.40;6.00;;;;;;;36.94;31.43;100591.75;108500;1272;21990;-66
2023/06/01 07:50:15;;;;;;;11.10;7.10;;;;;;;37.16;31.41;100589.16;108442;1279;21990;-67
2023/06/01 07:52:42;;;;;;;9.60;8.50;;;;;;;37.31;31.25;100592.11;108427;1280;21984;-65
2023/06/01 07:55:11;;;;;;;8.30;7.30;;;;;;;37.43;30.87;100590.60;108458;1274;22655;-67
2023/06/01 07:57:37;;;;;;;12.80;11.50;;;;;;;37.54;30.52;100589.95;108505;1280;21981;-66
2023/06/01 08:00:07;;;;;;;11.50;10.30;;;;;;;37.68;30.18;100587.67;108514;1279;21980;-66
2023/06/01 08:02:33;;;;;;;16.70;15.10;;;;;;;37.79;28.88;100585.77;108474;1279;21968;-66
2023/06/01 08:04:59;;;;;;;14.70;13.30;;;;;;;37.81;28.99;100585.36;108479;1280;21993;-67
2023/06/01 08:07:27;;;;;;;14.40;12.90;;;;;;;37.81;29.26;100584.05;108453;1280;21989;-65
2023/06/01 08:09:53;;;;;;;14.10;12.60;;;;;;;37.91;29.35;100585.41;108515;1280;21994;-66
2023/06/01 08:12:20;;;;;;;11.40;10.30;;;;;;;37.97;29.50;100586.73;108464;1280;21989;-65
2023/06/01 08:14:46;;;;;;;9.60;8.70;;;;;;;38.05;29.65;100586.65;108468;1280;21982;-65
2023/06/01 08:17:13;;;;;;;19.40;17.60;;;;;;;38.23;29.02;100583.38;108486;1278;21986;-65
2023/06/01 08:19:41;;;;;;;14.00;12.70;;;;;;;38.36;28.49;100578.42;108579;1277;21988;-65
2023/06/01 08:22:07;;;;;;;15.60;14.00;;;;;;;38.57;28.95;100583.30;108535;1274;21977;-66
2023/06/01 08:24:33;;;;;;;16.50;15.00;;;;;;;38.76;28.92;100580.70;108455;1280;22048;-64
2023/06/01 08:26:59;;;;;;;25.70;23.40;;;;;;;38.92;28.66;100582.77;108408;1273;21990;-68
2023/06/01 08:29:25;;;;;;;31.40;28.00;;;;;;;39.07;27.59;100577.96;108534;1280;21996;-68
2023/06/01 08:31:50;;;;;;;26.90;23.30;;;;;;;39.12;27.52;100579.52;108481;1280;21972;-65
2023/06/01 08:34:16;;;;;;;34.60;29.20;;;;;;;39.25;28.01;100584.06;108448;1280;22022;-65
2023/06/01 08:36:42;;;;;;;31.80;27.50;;;;;;;39.27;27.41;100579.02;108474;1280;21983;-66
2023/06/01 08:39:23;;;;;;;31.70;27.40;;;;;;;39.36;27.60;100577.80;108574;1270;21985;-67
2023/06/01 08:42:13;;;;;;;31.80;28.30;;;;;;;39.52;27.55;100574.17;108706;1273;21986;-67
2023/06/01 08:44:39;;;;;;;;;;;;;;;39.58;25.63;100569.41;108480;1279;23786;-67
2023/06/01 08:47:05;;;;;;;31.80;28.90;;;;;;;39.47;25.12;100573.99;108415;1274;21984;-68
2023/06/01 08:49:32;;;;;;;47.50;42.00;;;;;;;39.35;25.34;100567.67;108466;1279;21987;-67
2023/06/01 08:51:59;;;;;;;46.70;40.70;;;;;;;39.24;25.39;100564.35;108564;1279;23622;-67
2023/06/01 08:54:26;;;;;;;32.30;28.90;;;;;;;39.18;25.64;100566.13;108439;1279;22957;-68
2023/06/01 08:56:51;;;;;;;33.50;30.30;;;;;;;39.40;26.27;100567.09;108370;1279;23704;-66
2023/06/01 08:59:17;;;;;;;33.00;29.90;;;;;;;39.72;26.55;100565.27;108422;1277;21989;-66
2023/06/01 09:01:43;;;;;;;47.70;42.80;;;;;;;39.97;26.18;100567.16;108445;1273;21982;-68
2023/06/01 09:04:09;;;;;;;55.20;49.40;;;;;;;40.03;25.44;100563.23;108461;1279;21985;-67
2023/06/01 09:06:36;;;;;;;50.10;45.00;;;;;;;39.75;25.31;100563.67;108440;1274;21978;-67
2023/06/01 09:09:03;;;;;;;57.10;50.00;;;;;;;39.40;25.12;100561.13;108463;1273;21992;-67
2023/06/01 09:11:28;;;;;;;37.90;33.80;;;;;;;39.21;24.89;100554.84;108471;1276;22733;-67
2023/06/01 09:13:56;;;;;;;46.00;39.70;;;;;;;39.17;24.86;100550.02;108407;1279;22017;-67
2023/06/01 09:16:21;;;;;;;33.40;29.80;;;;;;;39.21;25.65;100550.58;108427;1279;21988;-67
2023/06/01 09:18:53;;;;;;;33.80;30.20;;;;;;;39.48;25.75;100551.13;108409;1276;21978;-66
2023/06/01 09:21:19;;;;;;;49.20;38.30;;;;;;;39.76;25.89;100550.41;108409;1279;22447;-66
2023/06/01 09:23:45;;;;;;;36.50;32.70;;;;;;;39.98;25.69;100548.17;108410;1279;23452;-66
2023/06/01 09:26:12;;;;;;;66.10;56.60;;;;;;;40.18;24.49;100545.27;108405;1271;21984;-66
2023/06/01 09:28:56;;;;;;;57.80;48.30;;;;;;;40.17;23.91;100541.16;108423;1277;22559;-65
2023/06/01 09:31:34;;;;;;;82.20;62.40;;;;;;;40.27;24.73;100539.20;108440;1276;22167;-65
2023/06/01 09:34:02;;;;;;;67.80;60.30;;;;;;;40.46;23.87;100532.48;108442;1279;22017;-64
2023/06/01 09:36:29;;;;;;;63.70;54.00;;;;;;;40.38;23.02;100536.95;108464;1275;23635;-65
2023/06/01 09:39:05;;;;;;;76.70;64.30;;;;;;;40.18;22.52;100532.79;108431;1279;21983;-65
2023/06/01 09:41:50;;;;;;;76.20;66.30;;;;;;;39.86;22.12;100532.27;108459;1279;21988;-66
2023/06/01 09:44:31;;;;;;;52.20;46.70;;;;;;;39.50;22.63;100536.73;108451;1274;24031;-67
2023/06/01 09:46:58;;;;;;;67.50;54.90;;;;;;;39.52;23.58;100538.13;108410;1279;22017;-66
2023/06/01 09:49:39;;;;;;;49.30;43.60;;;;;;;39.81;24.17;100538.82;108720;1274;23709;-65
2023/06/01 09:52:05;;;;;;;47.20;42.30;;;;;;;40.23;24.28;100537.57;108505;1267;22089;-66
2023/06/01 09:54:37;;;;;;;50.20;45.20;;;;;;;40.57;24.06;100532.39;108429;1273;21993;-67
2023/06/01 09:57:03;;;;;;;60.50;50.00;;;;;;;40.69;23.69;100530.73;108472;1279;22017;-66
2023/06/01 09:59:30;;;;;;;93.10;68.70;;;;;;;40.67;23.69;100529.59;108437;1273;22086;-68
2023/06/01 10:01:57;;;;;;;65.40;51.40;;;;;;;40.43;22.78;100530.87;108471;1279;21981;-66
2023/06/01 10:04:25;;;;;;;67.00;59.60;;;;;;;39.95;22.84;100531.65;108450;1274;21985;-67
2023/06/01 10:06:52;;;;;;;61.10;54.90;;;;;;;39.61;21.13;100530.38;108463;1278;21989;-67
2023/06/01 10:09:19;;;;;;;57.30;51.10;;;;;;;39.16;21.04;100531.32;108464;1276;22005;-68
2023/06/01 10:11:47;;;;;;;59.40;51.00;;;;;;;38.82;22.16;100533.19;108482;1268;21987;-66
2023/06/01 10:14:14;;;;;;;70.60;58.00;;;;;;;38.78;22.78;100533.02;108542;1276;22744;-66
2023/06/01 10:16:40;;;;;;;66.40;54.50;;;;;;;38.81;22.44;100530.73;108652;1279;21986;-67
2023/06/01 10:19:07;;;;;;;59.10;50.10;;;;;;;38.96;22.88;100527.15;108609;1278;22100;-66
2023/06/01 10:21:33;;;;;;;38.80;34.60;;;;;;;39.31;23.14;100519.54;108547;1280;21982;-66
2023/06/01 10:23:59;;;;;;;51.70;44.10;;;;;;;39.83;23.30;100519.96;108400;1274;21979;-66
2023/06/01 10:26:26;;;;;;;61.50;55.00;;;;;;;40.50;23.31;100513.86;108514;1274;21956;-66
2023/06/01 10:28:52;;;;;;;53.10;47.70;;;;;;;41.13;23.28;100508.97;108486;1280;22027;-65
2023/06/01 10:31:40;;;;;;;70.10;55.30;;;;;;;41.68;23.30;100504.09;108470;1273;21993;-65
2023/06/01 10:34:10;;;;;;;70.40;62.70;;;;;;;42.17;22.99;100501.88;108618;1280;21981;-65
2023/06/01 10:36:51;;;;;;;92.40;76.60;;;;;;;42.42;21.55;100503.92;108427;1280;22450;-66
2023/06/01 10:39:27;;;;;;;86.40;72.40;;;;;;;42.37;21.36;100504.85;108479;1270;21983;-65
2023/06/01 10:41:55;;;;;;;113.60;87.50;;;;;;;42.08;20.36;100503.22;108461;1280;23662;-65
2023/06/01 10:44:38;;;;;;;133.60;101.60;;;;;;;41.58;20.57;100501.54;108459;1274;22001;-65
2023/06/01 10:47:05;;;;;;;178.40;122.40;;;;;;;41.14;20.25;100491.56;108470;1274;21988;-66
2023/06/01 10:49:46;;;;;;;134.00;96.80;;;;;;;40.52;20.48;100492.44;108537;1280;21980;-66
2023/06/01 10:52:25;;;;;;;98.20;75.00;;;;;;;40.36;20.88;100495.10;108561;1273;21991;-63
2023/06/01 10:54:56;;;;;;;97.00;80.80;;;;;;;40.41;20.99;100492.63;108425;1280;22018;-65
2023/06/01 10:57:25;;;;;;;118.80;86.40;;;;;;;40.61;21.34;100491.23;108460;1275;22283;-67
2023/06/01 11:00:17;;;;;;;116.00;84.00;;;;;;;40.95;21.71;100488.27;108550;1276;23640;-65
2023/06/01 11:02:54;;;;;;;100.00;80.30;;;;;;;41.25;21.14;100481.50;108470;1280;22755;-65
2023/06/01 11:05:38;;;;;;;123.80;94.30;;;;;;;41.41;21.33;100474.95;108544;1274;21993;-66
2023/06/01 11:08:05;;;;;;;106.40;85.10;;;;;;;41.62;20.73;100472.43;108525;1280;22029;-67
2023/06/01 11:10:53;;;;;;;138.30;105.00;;;;;;;41.75;20.80;100472.38;108517;1280;21990;-66
2023/06/01 11:13:19;;;;;;;147.40;108.50;;;;;;;41.73;20.12;100470.40;108569;1278;21950;-67
2023/06/01 11:16:03;;;;;;;127.90;103.40;;;;;;;41.70;20.60;100469.36;108558;1279;21982;-66